Chestnut Ridge, PA

3:59 PM EST on January 25, 2015 (GMT -0500)
Washington County | Change Station
CLOSE
Current Station
Airport
Location: Washington,
Elevation: 1184 ft
Nearby Weather Stations
Active Advisory: Winter Weather Advisory

Elev 1184 ft 40.14 °N, 80.29 °W | Updated 4 minutes ago

Rain
Rain
34 °F
Feels Like 30 °F
N
5
Wind Variable Wind from East

Today
High -- | Low -- °F
--% Chance of Precip.
Yesterday
High -- | Low -- °F
Precip. -- in
7:33 AM 5:29 PM
Waxing Crescent, 35% visible
Pressure 29.77 in
Visibility 2.5 miles
Clouds Mostly Cloudy 600 ft
Mostly Cloudy 1100 ft
Overcast 1600 ft
Windchill 30 °F
Dew Point 32 °F
Humidity 93%
Rainfall 0.01 in
Snow Depth Not available.
UV 0 out of 12
Pollen .10 out of 12
Air Quality Not available.
Flu Activity Not available.
METAR KAFJ 252055Z AUTO 08004KT 2 1/2SM BKN006 BKN011 OVC016 01/00 A2977 RMK AO1 P0001 60001 57007

More Conditions Fewer Conditions

Pressure 29.77 in
Visibility 2.5 miles
Clouds Mostly Cloudy 600 ft
Mostly Cloudy 1100 ft
Overcast 1600 ft
Windchill 30 °F
Dew Point 32 °F
Humidity 93%
Rainfall 0.01 in
Snow Depth Not available.
UV 0 out of 12
Pollen .10 out of 12
Air Quality Not available.
Flu Activity Not available.
METAR KAFJ 252055Z AUTO 08004KT 2 1/2SM BKN006 BKN011 OVC016 01/00 A2977 RMK AO1 P0001 60001 57007

More Conditions Fewer Conditions

10-Day Weather Forecast

Almanac

Astronomy

Jan. 25, 2015 Rise Set
Actual Time
Civil Twilight
Nautical Twilight
Astronomical Twilight
Moon
Length of Visible Light
Length of Day
Tomorrow will be .
, % of the Moon is Illuminated

Today's Extremes

State Highs State Lows

Community

WunderPhotos

Upload Photos

1,790,041 photos uploaded!

WunderBlogs® & News

Nearby

Air Quality

  Air Quality AQ Index Pollutant
Not available.

Snow Depth

Station Depth Elevation

Earthquake Activity

City Distance Mag. Time & Date
Minimum magnitude displayed is 2.5.

Coastal Water Temperatures

Place Temperature

Nearby Weather Stations